sensor_id;sensor_type;location;lat;lon;timestamp;pressure;altitude;pressure_sealevel;temperature;humidity
71873;BME280;59745;52.924;-2.388;2022-08-19T00:03:02;98798.52;;;24.61;41.30
71873;BME280;59745;52.924;-2.388;2022-08-19T00:05:27;98799.94;;;24.60;41.18
71873;BME280;59745;52.924;-2.388;2022-08-19T00:07:52;98806.72;;;24.68;41.21
71873;BME280;59745;52.924;-2.388;2022-08-19T00:10:19;98807.23;;;25.19;41.14
71873;BME280;59745;52.924;-2.388;2022-08-19T00:12:43;98808.11;;;24.88;41.37
71873;BME280;59745;52.924;-2.388;2022-08-19T00:15:12;98808.29;;;24.88;41.32
71873;BME280;59745;52.924;-2.388;2022-08-19T00:17:33;98808.59;;;24.79;41.33
71873;BME280;59745;52.924;-2.388;2022-08-19T00:19:58;98808.70;;;24.90;41.02
71873;BME280;59745;52.924;-2.388;2022-08-19T00:22:23;98809.56;;;25.19;40.88
71873;BME280;59745;52.924;-2.388;2022-08-19T00:24:48;98816.59;;;25.20;40.99
71873;BME280;59745;52.924;-2.388;2022-08-19T00:27:13;98822.21;;;25.00;40.86
71873;BME280;59745;52.924;-2.388;2022-08-19T00:29:38;98821.79;;;25.25;41.09
71873;BME280;59745;52.924;-2.388;2022-08-19T00:32:04;98823.53;;;25.08;40.65
71873;BME280;59745;52.924;-2.388;2022-08-19T00:34:28;98827.23;;;25.06;40.73
71873;BME280;59745;52.924;-2.388;2022-08-19T00:36:54;98832.91;;;25.37;40.72
71873;BME280;59745;52.924;-2.388;2022-08-19T00:39:18;98830.50;;;25.10;40.58
71873;BME280;59745;52.924;-2.388;2022-08-19T00:41:44;98830.48;;;25.12;40.74
71873;BME280;59745;52.924;-2.388;2022-08-19T00:44:11;98838.23;;;25.20;40.88
71873;BME280;59745;52.924;-2.388;2022-08-19T00:46:35;98841.18;;;25.25;40.85
71873;BME280;59745;52.924;-2.388;2022-08-19T00:48:59;98857.19;;;24.26;40.12
71873;BME280;59745;52.924;-2.388;2022-08-19T00:51:24;98848.57;;;24.50;38.06
71873;BME280;59745;52.924;-2.388;2022-08-19T00:53:49;98850.92;;;24.60;36.36
71873;BME280;59745;52.924;-2.388;2022-08-19T00:56:14;98861.21;;;24.67;35.64
71873;BME280;59745;52.924;-2.388;2022-08-19T00:58:39;98856.69;;;24.37;33.85
71873;BME280;59745;52.924;-2.388;2022-08-19T01:01:04;98863.38;;;24.55;34.53
71873;BME280;59745;52.924;-2.388;2022-08-19T01:03:29;98859.40;;;24.60;34.28
71873;BME280;59745;52.924;-2.388;2022-08-19T01:05:54;98855.19;;;24.67;33.56
71873;BME280;59745;52.924;-2.388;2022-08-19T01:08:19;98860.58;;;24.56;33.90
71873;BME280;59745;52.924;-2.388;2022-08-19T01:10:46;98857.13;;;24.64;33.62
71873;BME280;59745;52.924;-2.388;2022-08-19T01:13:10;98856.51;;;24.66;32.62
71873;BME280;59745;52.924;-2.388;2022-08-19T01:15:40;98854.83;;;24.65;32.20
71873;BME280;59745;52.924;-2.388;2022-08-19T01:18:05;98859.65;;;24.44;32.01
71873;BME280;59745;52.924;-2.388;2022-08-19T01:20:24;98859.86;;;24.32;31.63
71873;BME280;59745;52.924;-2.388;2022-08-19T01:22:52;98856.31;;;24.55;31.29
71873;BME280;59745;52.924;-2.388;2022-08-19T01:25:17;98854.97;;;24.32;30.95
71873;BME280;59745;52.924;-2.388;2022-08-19T01:27:41;98865.18;;;24.38;31.14
71873;BME280;59745;52.924;-2.388;2022-08-19T01:30:06;98864.43;;;24.26;31.07
71873;BME280;59745;52.924;-2.388;2022-08-19T01:32:30;98865.78;;;24.30;31.27
71873;BME280;59745;52.924;-2.388;2022-08-19T01:34:55;98871.81;;;24.55;30.16
71873;BME280;59745;52.924;-2.388;2022-08-19T01:37:20;98870.53;;;24.12;30.59
71873;BME280;59745;52.924;-2.388;2022-08-19T01:39:45;98872.96;;;24.23;30.76
71873;BME280;59745;52.924;-2.388;2022-08-19T01:42:10;98874.32;;;24.58;30.19
71873;BME280;59745;52.924;-2.388;2022-08-19T01:44:35;98873.53;;;23.93;30.43
71873;BME280;59745;52.924;-2.388;2022-08-19T01:47:00;98875.08;;;24.44;30.64
71873;BME280;59745;52.924;-2.388;2022-08-19T01:49:25;98876.68;;;24.60;30.56
71873;BME280;59745;52.924;-2.388;2022-08-19T01:51:51;98881.06;;;24.38;30.55
71873;BME280;59745;52.924;-2.388;2022-08-19T01:54:17;98880.47;;;24.42;30.51
71873;BME280;59745;52.924;-2.388;2022-08-19T01:56:41;98882.70;;;24.41;29.97
71873;BME280;59745;52.924;-2.388;2022-08-19T01:59:10;98883.70;;;24.79;29.38
71873;BME280;59745;52.924;-2.388;2022-08-19T02:01:31;98884.00;;;24.55;29.92
71873;BME280;59745;52.924;-2.388;2022-08-19T02:03:56;98887.13;;;24.25;30.05
71873;BME280;59745;52.924;-2.388;2022-08-19T02:06:21;98888.33;;;24.22;30.18
71873;BME280;59745;52.924;-2.388;2022-08-19T02:08:46;98894.06;;;24.57;30.06
71873;BME280;59745;52.924;-2.388;2022-08-19T02:11:18;98892.15;;;24.53;30.15
71873;BME280;59745;52.924;-2.388;2022-08-19T02:13:36;98895.45;;;24.57;30.09
71873;BME280;59745;52.924;-2.388;2022-08-19T02:16:01;98895.93;;;24.50;30.11
71873;BME280;59745;52.924;-2.388;2022-08-19T02:18:26;98897.70;;;24.52;30.16
71873;BME280;59745;52.924;-2.388;2022-08-19T02:20:52;98896.13;;;24.09;30.19
71873;BME280;59745;52.924;-2.388;2022-08-19T02:23:17;98900.57;;;24.76;29.95
71873;BME280;59745;52.924;-2.388;2022-08-19T02:25:42;98898.05;;;24.74;29.74
71873;BME280;59745;52.924;-2.388;2022-08-19T02:28:07;98900.08;;;24.60;29.26
71873;BME280;59745;52.924;-2.388;2022-08-19T02:30:31;98905.42;;;24.69;29.18
71873;BME280;59745;52.924;-2.388;2022-08-19T02:32:56;98907.43;;;24.58;29.52
71873;BME280;59745;52.924;-2.388;2022-08-19T02:35:21;98909.73;;;24.32;29.53
71873;BME280;59745;52.924;-2.388;2022-08-19T02:37:47;98909.52;;;24.58;29.55
71873;BME280;59745;52.924;-2.388;2022-08-19T02:40:12;98906.43;;;24.70;29.42
71873;BME280;59745;52.924;-2.388;2022-08-19T02:42:37;98907.06;;;24.15;29.22
71873;BME280;59745;52.924;-2.388;2022-08-19T02:45:02;98903.98;;;24.38;29.27
71873;BME280;59745;52.924;-2.388;2022-08-19T02:47:27;98901.95;;;24.65;29.26
71873;BME280;59745;52.924;-2.388;2022-08-19T02:49:52;98900.55;;;24.49;29.32
71873;BME280;59745;52.924;-2.388;2022-08-19T02:52:17;98897.34;;;24.47;28.70
71873;BME280;59745;52.924;-2.388;2022-08-19T02:54:43;98896.80;;;24.41;28.96
71873;BME280;59745;52.924;-2.388;2022-08-19T02:57:07;98895.46;;;24.44;28.96
71873;BME280;59745;52.924;-2.388;2022-08-19T02:59:33;98897.71;;;24.29;29.15
71873;BME280;59745;52.924;-2.388;2022-08-19T03:01:57;98897.09;;;24.20;29.34
71873;BME280;59745;52.924;-2.388;2022-08-19T03:04:22;98897.91;;;24.17;29.26
71873;BME280;59745;52.924;-2.388;2022-08-19T03:06:47;98897.49;;;24.35;28.93
71873;BME280;59745;52.924;-2.388;2022-08-19T03:09:13;98899.57;;;24.09;29.11
71873;BME280;59745;52.924;-2.388;2022-08-19T03:11:38;98900.38;;;23.88;29.45
71873;BME280;59745;52.924;-2.388;2022-08-19T03:14:04;98904.70;;;23.70;29.74
71873;BME280;59745;52.924;-2.388;2022-08-19T03:16:30;98903.32;;;23.83;29.75
71873;BME280;59745;52.924;-2.388;2022-08-19T03:18:55;98905.85;;;23.15;30.51
71873;BME280;59745;52.924;-2.388;2022-08-19T03:21:21;98908.93;;;22.81;30.82
71873;BME280;59745;52.924;-2.388;2022-08-19T03:23:44;98907.93;;;22.82;31.16
71873;BME280;59745;52.924;-2.388;2022-08-19T03:26:08;98906.32;;;22.77;31.30
71873;BME280;59745;52.924;-2.388;2022-08-19T03:28:34;98905.28;;;22.70;31.42
71873;BME280;59745;52.924;-2.388;2022-08-19T03:31:00;98907.48;;;22.82;31.49
71873;BME280;59745;52.924;-2.388;2022-08-19T03:33:24;98904.82;;;22.85;31.28
71873;BME280;59745;52.924;-2.388;2022-08-19T03:36:00;98909.40;;;22.87;31.18
71873;BME280;59745;52.924;-2.388;2022-08-19T03:38:14;98915.18;;;22.50;31.16
71873;BME280;59745;52.924;-2.388;2022-08-19T03:40:39;98921.76;;;22.59;31.28
71873;BME280;59745;52.924;-2.388;2022-08-19T03:43:04;98929.51;;;23.01;30.97
71873;BME280;59745;52.924;-2.388;2022-08-19T03:45:29;98936.79;;;22.56;31.19
71873;BME280;59745;52.924;-2.388;2022-08-19T03:47:54;98942.92;;;22.41;31.32
71873;BME280;59745;52.924;-2.388;2022-08-19T03:50:19;98941.46;;;22.70;31.58
71873;BME280;59745;52.924;-2.388;2022-08-19T03:52:48;98940.76;;;22.33;31.56
71873;BME280;59745;52.924;-2.388;2022-08-19T03:55:09;98946.66;;;22.56;31.40
71873;BME280;59745;52.924;-2.388;2022-08-19T03:57:34;98947.16;;;22.59;31.36
71873;BME280;59745;52.924;-2.388;2022-08-19T04:00:03;98947.48;;;22.73;31.42
71873;BME280;59745;52.924;-2.388;2022-08-19T04:02:25;98946.57;;;21.81;31.98
71873;BME280;59745;52.924;-2.388;2022-08-19T04:04:53;98945.56;;;22.10;32.37
71873;BME280;59745;52.924;-2.388;2022-08-19T04:07:15;98947.13;;;22.10;32.59
71873;BME280;59745;52.924;-2.388;2022-08-19T04:09:40;98950.75;;;22.30;32.23
71873;BME280;59745;52.924;-2.388;2022-08-19T04:12:06;98951.29;;;22.19;32.40
71873;BME280;59745;52.924;-2.388;2022-08-19T04:14:31;98952.02;;;21.95;32.48
71873;BME280;59745;52.924;-2.388;2022-08-19T04:16:57;98952.40;;;21.77;32.73
71873;BME280;59745;52.924;-2.388;2022-08-19T04:19:21;98956.94;;;21.81;33.10
71873;BME280;59745;52.924;-2.388;2022-08-19T04:21:49;98958.94;;;21.56;33.38
71873;BME280;59745;52.924;-2.388;2022-08-19T04:24:12;98965.70;;;21.80;33.50
71873;BME280;59745;52.924;-2.388;2022-08-19T04:26:36;98970.86;;;21.90;33.47
71873;BME280;59745;52.924;-2.388;2022-08-19T04:29:04;98972.84;;;21.91;33.48
71873;BME280;59745;52.924;-2.388;2022-08-19T04:31:29;98967.46;;;21.97;33.44
71873;BME280;59745;52.924;-2.388;2022-08-19T04:33:52;98965.78;;;21.77;33.37
71873;BME280;59745;52.924;-2.388;2022-08-19T04:36:18;98967.55;;;21.79;33.29
71873;BME280;59745;52.924;-2.388;2022-08-19T04:38:42;98975.23;;;21.84;33.16
71873;BME280;59745;52.924;-2.388;2022-08-19T04:41:07;98979.83;;;22.07;33.15
71873;BME280;59745;52.924;-2.388;2022-08-19T04:43:33;98979.79;;;21.88;33.06
71873;BME280;59745;52.924;-2.388;2022-08-19T04:45:57;98986.63;;;22.35;32.50
71873;BME280;59745;52.924;-2.388;2022-08-19T04:48:23;98989.09;;;22.46;32.14
71873;BME280;59745;52.924;-2.388;2022-08-19T04:50:47;98995.22;;;22.32;32.25
71873;BME280;59745;52.924;-2.388;2022-08-19T04:53:13;98999.15;;;21.74;32.95
71873;BME280;59745;52.924;-2.388;2022-08-19T04:55:40;99000.75;;;21.53;33.35
71873;BME280;59745;52.924;-2.388;2022-08-19T04:58:03;98999.65;;;21.47;33.55
71873;BME280;59745;52.924;-2.388;2022-08-19T05:00:28;98996.04;;;21.42;33.65
71873;BME280;59745;52.924;-2.388;2022-08-19T05:02:53;98997.09;;;21.94;33.22
71873;BME280;59745;52.924;-2.388;2022-08-19T05:05:18;98997.78;;;21.74;32.80
71873;BME280;59745;52.924;-2.388;2022-08-19T05:07:44;98997.45;;;21.76;33.34
71873;BME280;59745;52.924;-2.388;2022-08-19T05:10:09;98997.25;;;21.62;33.48
71873;BME280;59745;52.924;-2.388;2022-08-19T05:12:34;98998.54;;;21.48;32.99
71873;BME280;59745;52.924;-2.388;2022-08-19T05:14:59;98997.52;;;21.44;33.30
71873;BME280;59745;52.924;-2.388;2022-08-19T05:17:24;98999.55;;;21.55;33.19
71873;BME280;59745;52.924;-2.388;2022-08-19T05:19:49;99005.07;;;21.74;33.17
71873;BME280;59745;52.924;-2.388;2022-08-19T05:22:14;99009.25;;;21.21;33.66
71873;BME280;59745;52.924;-2.388;2022-08-19T05:24:39;99015.44;;;21.14;34.16
71873;BME280;59745;52.924;-2.388;2022-08-19T05:27:05;99021.98;;;20.74;34.73
71873;BME280;59745;52.924;-2.388;2022-08-19T05:29:30;99027.43;;;20.73;35.12
71873;BME280;59745;52.924;-2.388;2022-08-19T05:31:55;99031.69;;;20.46;35.20
71873;BME280;59745;52.924;-2.388;2022-08-19T05:34:22;99036.12;;;20.72;35.31
71873;BME280;59745;52.924;-2.388;2022-08-19T05:36:45;99039.07;;;20.53;35.37
71873;BME280;59745;52.924;-2.388;2022-08-19T05:39:14;99041.97;;;20.86;35.37
71873;BME280;59745;52.924;-2.388;2022-08-19T05:41:40;99040.19;;;20.78;35.07
71873;BME280;59745;52.924;-2.388;2022-08-19T05:44:03;99041.02;;;20.91;34.83
71873;BME280;59745;52.924;-2.388;2022-08-19T05:46:26;99039.28;;;21.06;34.88
71873;BME280;59745;52.924;-2.388;2022-08-19T05:48:51;99037.55;;;21.39;34.49
71873;BME280;59745;52.924;-2.388;2022-08-19T05:51:17;99043.04;;;21.62;35.09
71873;BME280;59745;52.924;-2.388;2022-08-19T05:53:42;99048.51;;;21.80;34.76
71873;BME280;59745;52.924;-2.388;2022-08-19T05:56:08;99050.16;;;21.78;34.13
71873;BME280;59745;52.924;-2.388;2022-08-19T05:58:32;99052.72;;;21.97;33.55
71873;BME280;59745;52.924;-2.388;2022-08-19T06:00:58;99054.61;;;22.45;33.57
71873;BME280;59745;52.924;-2.388;2022-08-19T06:03:22;99050.39;;;22.29;33.37
71873;BME280;59745;52.924;-2.388;2022-08-19T06:05:47;99053.27;;;22.41;33.56
71873;BME280;59745;52.924;-2.388;2022-08-19T06:08:13;99051.90;;;22.61;33.47
71873;BME280;59745;52.924;-2.388;2022-08-19T06:10:38;99054.17;;;22.79;33.18
71873;BME280;59745;52.924;-2.388;2022-08-19T06:13:03;99052.31;;;22.58;32.94
71873;BME280;59745;52.924;-2.388;2022-08-19T06:15:28;99054.42;;;23.00;32.92
71873;BME280;59745;52.924;-2.388;2022-08-19T06:17:53;99057.39;;;23.10;32.70
71873;BME280;59745;52.924;-2.388;2022-08-19T06:20:18;99055.43;;;23.52;31.45
71873;BME280;59745;52.924;-2.388;2022-08-19T06:22:45;99056.16;;;23.67;31.31
71873;BME280;59745;52.924;-2.388;2022-08-19T06:25:09;99059.57;;;23.80;31.09
71873;BME280;59745;52.924;-2.388;2022-08-19T06:27:34;99062.17;;;23.64;31.45
71873;BME280;59745;52.924;-2.388;2022-08-19T06:29:59;99061.13;;;24.01;31.37
71873;BME280;59745;52.924;-2.388;2022-08-19T06:32:24;99057.92;;;23.87;31.39
71873;BME280;59745;52.924;-2.388;2022-08-19T06:34:49;99057.13;;;24.28;31.27
71873;BME280;59745;52.924;-2.388;2022-08-19T06:37:15;99062.14;;;24.47;31.02
71873;BME280;59745;52.924;-2.388;2022-08-19T06:39:42;99067.98;;;24.45;30.94
71873;BME280;59745;52.924;-2.388;2022-08-19T06:42:06;99071.88;;;24.16;30.77
71873;BME280;59745;52.924;-2.388;2022-08-19T06:44:32;99071.75;;;24.61;31.00
71873;BME280;59745;52.924;-2.388;2022-08-19T06:46:55;99070.79;;;24.59;30.61
71873;BME280;59745;52.924;-2.388;2022-08-19T06:49:21;99066.98;;;24.55;30.38
71873;BME280;59745;52.924;-2.388;2022-08-19T06:51:47;99060.92;;;25.19;30.58
71873;BME280;59745;52.924;-2.388;2022-08-19T06:54:10;99054.81;;;25.31;30.14
71873;BME280;59745;52.924;-2.388;2022-08-19T06:56:37;99056.11;;;24.71;30.32
71873;BME280;59745;52.924;-2.388;2022-08-19T06:59:02;99057.53;;;24.99;30.22
71873;BME280;59745;52.924;-2.388;2022-08-19T07:01:26;99060.91;;;25.07;30.45
71873;BME280;59745;52.924;-2.388;2022-08-19T07:03:51;99062.09;;;25.02;30.50
71873;BME280;59745;52.924;-2.388;2022-08-19T07:06:18;99062.04;;;25.45;29.84
71873;BME280;59745;52.924;-2.388;2022-08-19T07:08:41;99063.40;;;25.63;29.73
71873;BME280;59745;52.924;-2.388;2022-08-19T07:11:07;99067.76;;;25.64;29.20
71873;BME280;59745;52.924;-2.388;2022-08-19T07:13:31;99071.67;;;25.98;29.19
71873;BME280;59745;52.924;-2.388;2022-08-19T07:15:56;99066.73;;;25.86;28.79
71873;BME280;59745;52.924;-2.388;2022-08-19T07:18:21;99069.76;;;25.61;28.91
71873;BME280;59745;52.924;-2.388;2022-08-19T07:20:46;99072.01;;;26.04;29.47
71873;BME280;59745;52.924;-2.388;2022-08-19T07:23:11;99073.08;;;26.35;29.05
71873;BME280;59745;52.924;-2.388;2022-08-19T07:25:36;99073.64;;;26.36;29.04
71873;BME280;59745;52.924;-2.388;2022-08-19T07:28:02;99074.67;;;26.64;28.33
71873;BME280;59745;52.924;-2.388;2022-08-19T07:30:26;99076.19;;;26.10;28.20
71873;BME280;59745;52.924;-2.388;2022-08-19T07:32:51;99076.92;;;26.30;28.13
71873;BME280;59745;52.924;-2.388;2022-08-19T07:35:16;99079.50;;;26.10;28.53
71873;BME280;59745;52.924;-2.388;2022-08-19T07:37:41;99083.73;;;26.54;28.58
71873;BME280;59745;52.924;-2.388;2022-08-19T07:40:07;99086.47;;;26.80;28.36
71873;BME280;59745;52.924;-2.388;2022-08-19T07:42:32;99095.63;;;26.94;28.02
71873;BME280;59745;52.924;-2.388;2022-08-19T07:44:58;99098.49;;;27.32;27.79
71873;BME280;59745;52.924;-2.388;2022-08-19T07:47:22;99102.64;;;27.53;27.00
71873;BME280;59745;52.924;-2.388;2022-08-19T07:49:47;99103.08;;;27.84;26.56
71873;BME280;59745;52.924;-2.388;2022-08-19T07:52:13;99098.77;;;27.65;26.23
71873;BME280;59745;52.924;-2.388;2022-08-19T07:54:39;99098.63;;;27.83;26.18
71873;BME280;59745;52.924;-2.388;2022-08-19T07:57:05;99100.74;;;27.87;26.53
71873;BME280;59745;52.924;-2.388;2022-08-19T07:59:30;99103.28;;;28.06;25.82
71873;BME280;59745;52.924;-2.388;2022-08-19T08:01:56;99111.72;;;28.44;25.38
71873;BME280;59745;52.924;-2.388;2022-08-19T08:04:21;99117.74;;;28.43;26.18
71873;BME280;59745;52.924;-2.388;2022-08-19T08:06:47;99113.96;;;28.63;24.66
71873;BME280;59745;52.924;-2.388;2022-08-19T08:09:15;99116.28;;;29.15;24.08
71873;BME280;59745;52.924;-2.388;2022-08-19T08:11:38;99119.05;;;28.98;24.01
71873;BME280;59745;52.924;-2.388;2022-08-19T08:14:03;99117.63;;;29.09;24.14
71873;BME280;59745;52.924;-2.388;2022-08-19T08:16:28;99115.46;;;28.97;24.57
71873;BME280;59745;52.924;-2.388;2022-08-19T08:18:54;99115.32;;;29.04;24.12
71873;BME280;59745;52.924;-2.388;2022-08-19T08:21:19;99113.43;;;28.60;23.98
71873;BME280;59745;52.924;-2.388;2022-08-19T08:23:44;99119.92;;;28.77;25.00
71873;BME280;59745;52.924;-2.388;2022-08-19T08:26:09;99119.51;;;28.27;24.41
71873;BME280;59745;52.924;-2.388;2022-08-19T08:28:34;99119.89;;;28.49;24.19
71873;BME280;59745;52.924;-2.388;2022-08-19T08:30:59;99114.26;;;28.17;24.00
71873;BME280;59745;52.924;-2.388;2022-08-19T08:33:26;99116.74;;;27.52;23.87
71873;BME280;59745;52.924;-2.388;2022-08-19T08:35:50;99113.52;;;26.93;23.30
71873;BME280;59745;52.924;-2.388;2022-08-19T08:38:15;99114.04;;;27.16;23.51
71873;BME280;59745;52.924;-2.388;2022-08-19T08:40:45;99114.57;;;26.73;25.33
71873;BME280;59745;52.924;-2.388;2022-08-19T08:43:07;99112.89;;;26.64;25.51
71873;BME280;59745;52.924;-2.388;2022-08-19T08:45:30;99110.43;;;26.84;25.46
71873;BME280;59745;52.924;-2.388;2022-08-19T08:47:57;99104.37;;;26.91;25.94
71873;BME280;59745;52.924;-2.388;2022-08-19T08:50:23;99108.27;;;27.30;25.35
71873;BME280;59745;52.924;-2.388;2022-08-19T08:52:47;99106.21;;;27.74;25.43
71873;BME280;59745;52.924;-2.388;2022-08-19T08:55:20;99114.30;;;27.44;25.04
71873;BME280;59745;52.924;-2.388;2022-08-19T08:57:39;99112.46;;;27.50;24.67
71873;BME280;59745;52.924;-2.388;2022-08-19T09:00:03;99113.13;;;27.14;23.83
71873;BME280;59745;52.924;-2.388;2022-08-19T09:02:25;99117.09;;;27.77;24.91
71873;BME280;59745;52.924;-2.388;2022-08-19T09:04:54;99117.38;;;27.12;24.09
71873;BME280;59745;52.924;-2.388;2022-08-19T09:07:30;99126.00;;;28.22;24.07
71873;BME280;59745;52.924;-2.388;2022-08-19T09:09:47;99136.57;;;28.60;23.01
71873;BME280;59745;52.924;-2.388;2022-08-19T09:12:14;99137.99;;;28.35;22.45
71873;BME280;59745;52.924;-2.388;2022-08-19T09:14:42;99131.45;;;28.52;21.89
71873;BME280;59745;52.924;-2.388;2022-08-19T09:18:39;99126.13;;;30.11;22.44
71873;BME280;59745;52.924;-2.388;2022-08-19T09:20:52;99128.57;;;30.01;21.55
71873;BME280;59745;52.924;-2.388;2022-08-19T09:23:17;99133.05;;;29.94;23.19
71873;BME280;59745;52.924;-2.388;2022-08-19T09:25:43;99130.21;;;30.09;21.72
71873;BME280;59745;52.924;-2.388;2022-08-19T09:28:09;99136.70;;;29.49;21.97
71873;BME280;59745;52.924;-2.388;2022-08-19T09:30:40;99140.36;;;29.49;22.31
71873;BME280;59745;52.924;-2.388;2022-08-19T09:33:01;99139.55;;;29.34;22.70
71873;BME280;59745;52.924;-2.388;2022-08-19T09:35:28;99137.50;;;29.10;21.52
71873;BME280;59745;52.924;-2.388;2022-08-19T09:37:53;99141.52;;;29.33;22.58
71873;BME280;59745;52.924;-2.388;2022-08-19T09:40:19;99141.00;;;29.16;22.93
71873;BME280;59745;52.924;-2.388;2022-08-19T09:42:44;99146.00;;;29.52;23.87
71873;BME280;59745;52.924;-2.388;2022-08-19T09:45:10;99145.97;;;29.70;22.23
71873;BME280;59745;52.924;-2.388;2022-08-19T09:47:36;99148.97;;;29.12;23.03
71873;BME280;59745;52.924;-2.388;2022-08-19T09:50:02;99145.61;;;28.54;22.60
71873;BME280;59745;52.924;-2.388;2022-08-19T09:52:27;99144.33;;;29.06;24.04
71873;BME280;59745;52.924;-2.388;2022-08-19T09:54:53;99147.27;;;28.47;24.12
71873;BME280;59745;52.924;-2.388;2022-08-19T09:57:19;99135.54;;;28.41;23.63
71873;BME280;59745;52.924;-2.388;2022-08-19T09:59:45;99136.20;;;28.35;23.73
71873;BME280;59745;52.924;-2.388;2022-08-19T10:02:10;99126.92;;;28.24;23.48
71873;BME280;59745;52.924;-2.388;2022-08-19T10:04:35;99124.47;;;27.42;23.94
71873;BME280;59745;52.924;-2.388;2022-08-19T10:07:00;99132.23;;;27.19;24.72
71873;BME280;59745;52.924;-2.388;2022-08-19T10:09:26;99132.60;;;26.32;25.65
71873;BME280;59745;52.924;-2.388;2022-08-19T10:11:50;99132.06;;;26.47;26.26
71873;BME280;59745;52.924;-2.388;2022-08-19T10:14:16;99138.54;;;25.96;27.43
71873;BME280;59745;52.924;-2.388;2022-08-19T10:16:41;99130.95;;;26.60;27.33
71873;BME280;59745;52.924;-2.388;2022-08-19T10:19:06;99141.16;;;26.66;27.35
71873;BME280;59745;52.924;-2.388;2022-08-19T10:21:33;99131.17;;;26.94;26.24
71873;BME280;59745;52.924;-2.388;2022-08-19T10:23:59;99132.10;;;27.29;27.00
71873;BME280;59745;52.924;-2.388;2022-08-19T10:26:23;99134.86;;;27.86;25.46
71873;BME280;59745;52.924;-2.388;2022-08-19T10:28:46;99132.64;;;27.82;24.31
71873;BME280;59745;52.924;-2.388;2022-08-19T10:31:14;99133.04;;;27.48;24.29
71873;BME280;59745;52.924;-2.388;2022-08-19T10:33:37;99133.18;;;27.37;24.37
71873;BME280;59745;52.924;-2.388;2022-08-19T10:36:03;99135.52;;;27.03;24.84
71873;BME280;59745;52.924;-2.388;2022-08-19T10:38:26;99139.88;;;26.95;24.88
71873;BME280;59745;52.924;-2.388;2022-08-19T10:40:51;99135.96;;;26.86;25.40
71873;BME280;59745;52.924;-2.388;2022-08-19T10:43:16;99142.48;;;26.85;25.45
71873;BME280;59745;52.924;-2.388;2022-08-19T10:45:41;99136.71;;;26.64;25.60
71873;BME280;59745;52.924;-2.388;2022-08-19T10:48:06;99130.88;;;26.79;26.42
71873;BME280;59745;52.924;-2.388;2022-08-19T10:50:31;99124.07;;;27.01;27.83
71873;BME280;59745;52.924;-2.388;2022-08-19T10:52:56;99116.59;;;27.39;25.99
71873;BME280;59745;52.924;-2.388;2022-08-19T10:55:24;99120.56;;;27.60;25.45
71873;BME280;59745;52.924;-2.388;2022-08-19T10:57:46;99120.72;;;27.60;24.28
71873;BME280;59745;52.924;-2.388;2022-08-19T11:00:12;99121.87;;;27.52;25.38
71873;BME280;59745;52.924;-2.388;2022-08-19T11:02:37;99124.02;;;28.03;25.44
71873;BME280;59745;52.924;-2.388;2022-08-19T11:05:04;99121.46;;;27.84;23.51
71873;BME280;59745;52.924;-2.388;2022-08-19T11:07:29;99129.39;;;28.46;22.56
71873;BME280;59745;52.924;-2.388;2022-08-19T11:09:55;99131.78;;;27.90;23.13
71873;BME280;59745;52.924;-2.388;2022-08-19T11:12:21;99140.18;;;27.56;23.51
71873;BME280;59745;52.924;-2.388;2022-08-19T11:14:47;99137.04;;;27.56;23.84
71873;BME280;59745;52.924;-2.388;2022-08-19T11:17:11;99135.36;;;27.38;24.06
71873;BME280;59745;52.924;-2.388;2022-08-19T11:19:37;99131.46;;;27.55;23.46
71873;BME280;59745;52.924;-2.388;2022-08-19T11:22:02;99130.54;;;26.90;23.86
71873;BME280;59745;52.924;-2.388;2022-08-19T11:24:27;99135.05;;;26.85;25.27
71873;BME280;59745;52.924;-2.388;2022-08-19T11:26:54;99136.69;;;27.19;24.10
71873;BME280;59745;52.924;-2.388;2022-08-19T11:29:18;99137.61;;;27.31;24.42
71873;BME280;59745;52.924;-2.388;2022-08-19T11:31:44;99135.12;;;27.61;23.09
71873;BME280;59745;52.924;-2.388;2022-08-19T11:34:09;99137.44;;;27.10;23.37
71873;BME280;59745;52.924;-2.388;2022-08-19T11:36:32;99137.42;;;27.30;23.48
71873;BME280;59745;52.924;-2.388;2022-08-19T11:38:58;99134.70;;;27.26;24.82
71873;BME280;59745;52.924;-2.388;2022-08-19T11:41:24;99135.04;;;27.56;22.82
71873;BME280;59745;52.924;-2.388;2022-08-19T11:43:48;99144.96;;;27.43;23.52
71873;BME280;59745;52.924;-2.388;2022-08-19T11:46:14;99144.87;;;27.68;22.86
71873;BME280;59745;52.924;-2.388;2022-08-19T11:48:39;99143.37;;;27.50;23.01
71873;BME280;59745;52.924;-2.388;2022-08-19T11:51:08;99145.58;;;27.79;23.13
71873;BME280;59745;52.924;-2.388;2022-08-19T11:53:29;99148.87;;;27.68;24.05
71873;BME280;59745;52.924;-2.388;2022-08-19T11:55:53;99143.80;;;27.33;22.65
71873;BME280;59745;52.924;-2.388;2022-08-19T11:58:18;99138.77;;;27.40;24.06
71873;BME280;59745;52.924;-2.388;2022-08-19T12:00:43;99137.29;;;27.83;23.52
71873;BME280;59745;52.924;-2.388;2022-08-19T12:03:08;99137.24;;;27.91;21.92
71873;BME280;59745;52.924;-2.388;2022-08-19T12:05:33;99141.38;;;28.16;21.94
71873;BME280;59745;52.924;-2.388;2022-08-19T12:07:58;99140.09;;;28.26;22.26
71873;BME280;59745;52.924;-2.388;2022-08-19T12:10:23;99142.92;;;27.74;22.72
71873;BME280;59745;52.924;-2.388;2022-08-19T12:12:48;99144.30;;;27.85;21.84
71873;BME280;59745;52.924;-2.388;2022-08-19T12:15:13;99140.79;;;27.89;22.90
71873;BME280;59745;52.924;-2.388;2022-08-19T12:17:38;99140.89;;;27.81;23.57
71873;BME280;59745;52.924;-2.388;2022-08-19T12:20:04;99133.88;;;28.55;22.11
71873;BME280;59745;52.924;-2.388;2022-08-19T12:22:28;99136.73;;;28.65;21.52
71873;BME280;59745;52.924;-2.388;2022-08-19T12:24:54;99134.37;;;29.21;22.12
71873;BME280;59745;52.924;-2.388;2022-08-19T12:27:21;99133.43;;;29.01;22.08
71873;BME280;59745;52.924;-2.388;2022-08-19T12:29:46;99142.68;;;28.44;21.40
71873;BME280;59745;52.924;-2.388;2022-08-19T12:32:12;99146.21;;;28.32;22.75
71873;BME280;59745;52.924;-2.388;2022-08-19T12:34:38;99146.19;;;28.04;21.06
71873;BME280;59745;52.924;-2.388;2022-08-19T12:37:05;99144.22;;;28.03;20.63
71873;BME280;59745;52.924;-2.388;2022-08-19T12:39:30;99153.94;;;27.79;21.75
71873;BME280;59745;52.924;-2.388;2022-08-19T12:41:55;99152.26;;;27.48;21.91